METAR pasados Noord Nederlandse Zweefvliegclub (NL-0036)

25 de septiembre de 2022

Hora Código Tiempo Temp. Visibilidad Cielo nuboso Viento METAR/SPECI
23:20
L
8 °C 0 m - Var Var 2 kt METAR ETWM 252120Z AUTO VRB02KT //// // ////// 08/08 Q1009 ///
22:20
L
9 °C 0 m - 230° 230° 2 kt METAR ETWM 252020Z AUTO 23002KT //// // ////// 09/08 Q1010 ///
21:20
L
9 °C 0 m - 230° 230° 2 kt METAR ETWM 251920Z AUTO 23002KT //// // ////// 09/08 Q1011 ///
20:20
L
10 °C 0 m - 250° 250° 2 kt METAR ETWM 251820Z AUTO 25002KT //// // ////// 10/08 Q1011 ///
19:20
L
12 °C 0 m - Var Var 2 kt METAR ETWM 251720Z AUTO VRB02KT //// // ////// 12/08 Q1012 ///
18:20
L
14 °C 0 m - Var Var 2 kt METAR ETWM 251620Z AUTO VRB02KT //// // ////// 14/08 Q1012 ///
17:20
L
15 °C 0 m - 330° 330° 6 kt METAR ETWM 251520Z AUTO 33006KT //// // ////// 15/06 Q1012 ///
16:20
L
16 °C 0 m - 330° 330° 8 kt METAR ETWM 251420Z AUTO 33008KT //// // ////// 16/07 Q1012 ///
15:20
L
16 °C 0 m - 310° 310° 5 kt METAR ETWM 251320Z AUTO 31005KT //// // ////// 16/07 Q1013 ///
14:20
L
17 °C 0 m - 290° 290° 5 kt METAR ETWM 251220Z AUTO 29005KT //// // ////// 17/08 Q1013 ///
13:20
L
16 °C 0 m - 310° 310° 5 kt METAR ETWM 251120Z AUTO 31005KT //// // ////// 16/06 Q1014 ///
12:20
L
16 °C 0 m - 320° 320° 3 kt METAR ETWM 251020Z AUTO 32003KT //// // ////// 16/07 Q1014 ///
11:20
L
15 °C 0 m - 330° 330° 5 kt METAR ETWM 250920Z AUTO 33005KT //// // ////// 15/08 Q1014 ///
10:20
L
13 °C 0 m - 300° 300° 3 kt METAR ETWM 250820Z AUTO 30003KT //// // ////// 13/09 Q1014 ///
09:20
L
10 °C 0 m - 290° 290° 4 kt METAR ETWM 250720Z AUTO 29004KT //// // ////// 10/08 Q1014 ///
08:20
L
8 °C 0 m - 290° 290° 5 kt METAR ETWM 250620Z AUTO 29005KT //// // ////// 08/07 Q1014 ///
07:20
L
7 °C 0 m - 290° 290° 4 kt METAR ETWM 250520Z AUTO 29004KT //// // ////// 07/06 Q1014 ///
06:20
L
7 °C 0 m - 280° 280° 5 kt METAR ETWM 250420Z AUTO 28005KT //// // ////// 07/07 Q1014 ///
05:20
L
7 °C 0 m - 280° 280° 3 kt METAR ETWM 250320Z AUTO 28003KT //// // ////// 07/07 Q1014 ///
04:20
L
8 °C 0 m - 290° 290° 4 kt METAR ETWM 250220Z AUTO 29004KT //// // ////// 08/07 Q1014 ///
03:20
L
8 °C 0 m - 290° 290° 4 kt METAR ETWM 250120Z AUTO 29004KT //// // ////// 08/08 Q1014 ///
02:20
L
9 °C 0 m - 310° 310° 2 kt METAR ETWM 250020Z AUTO 31002KT //// // ////// 09/08 Q1014 ///
01:20
L
10 °C 0 m - 320° 320° 2 kt METAR ETWM 242320Z AUTO 32002KT //// // ////// 10/09 Q1014 ///
00:20
L
10 °C 0 m - 320° 320° 3 kt METAR ETWM 242220Z AUTO 32003KT //// // ////// 10/10 Q1014 ///

24 de septiembre de 2022

Hora Código Tiempo Temp. Visibilidad Cielo nuboso Viento METAR/SPECI
23:20
L
11 °C 0 m - 320° 320° 2 kt METAR ETWM 242120Z AUTO 32002KT //// // ////// 11/10 Q1014 ///
22:20
L
12 °C 0 m - 340° 340° 2 kt METAR ETWM 242020Z AUTO 34002KT //// // ////// 12/11 Q1014 ///
21:20
L
13 °C 0 m - 360° 360° 9 kt METAR ETWM 241920Z AUTO 36009KT //// // ////// 13/11 Q1014 ///
20:20
L
14 °C 0 m - 340° 340° 5 kt METAR ETWM 241820Z AUTO 34005KT //// // ////// 14/11 Q1013 ///
19:20
L
14 °C 0 m - 340° 340° 4 kt METAR ETWM 241720Z AUTO 34004KT //// // ////// 14/11 Q1013 ///
18:20
L
14 °C 0 m - 350° 350° 8 kt METAR ETWM 241620Z AUTO 35008KT //// // ////// 14/11 Q1013 ///
17:20
L
15 °C 0 m - 330° 330° 5 kt METAR ETWM 241520Z AUTO 33005KT //// // ////// 15/12 Q1012 ///
16:20
L
16 °C 0 m - 310° 310° 4 kt METAR ETWM 241420Z AUTO 31004KT //// // ////// 16/12 Q1012 ///
15:20
L
15 °C 0 m - 300° 300° 5 kt METAR ETWM 241320Z AUTO 30005KT //// // ////// 15/12 Q1012 ///
14:20
L
15 °C 0 m - 270° 270° 5 kt METAR ETWM 241220Z AUTO 27005KT //// // ////// 15/13 Q1012 ///
13:20
L
14 °C 0 m - 240° 240° 5 kt METAR ETWM 241120Z AUTO 24005KT //// // ////// 14/12 Q1012 ///
12:20
L
14 °C 0 m - 230° 230° 6 kt METAR ETWM 241020Z AUTO 23006KT //// // ////// 14/12 Q1012 ///
11:20
L
14 °C 0 m - 220° 220° 6 kt METAR ETWM 240920Z AUTO 22006KT //// // ////// 14/12 Q1012 ///
10:20
L
13 °C 0 m - 230° 230° 5 kt METAR ETWM 240820Z AUTO 23005KT //// // ////// 13/12 Q1012 ///
09:20
L
13 °C 0 m - 210° 210° 3 kt METAR ETWM 240720Z AUTO 21003KT //// // ////// 13/12 Q1011 ///
08:20
L
13 °C 0 m - Var Var 2 kt METAR ETWM 240620Z AUTO VRB02KT //// // ////// 13/12 Q1011 ///
07:20
L
13 °C 0 m - Var Var 2 kt METAR ETWM 240520Z AUTO VRB02KT //// // ////// 13/11 Q1011 ///
06:20
L
13 °C 0 m - Var Var 2 kt METAR ETWM 240420Z AUTO VRB02KT //// // ////// 13/11 Q1011 ///
05:20
L
13 °C 0 m - 180° 180° 2 kt METAR ETWM 240320Z AUTO 18002KT //// // ////// 13/11 Q1011 ///
04:20
L
13 °C 0 m - Var Var 3 kt METAR ETWM 240220Z AUTO VRB03KT //// // ////// 13/11 Q1011 ///
03:20
L
13 °C 0 m - Var Var 2 kt METAR ETWM 240120Z AUTO VRB02KT //// // ////// 13/11 Q1012 ///
02:20
L
12 °C 0 m - Var Var 2 kt METAR ETWM 240020Z AUTO VRB02KT //// // ////// 12/11 Q1012 ///
01:20
L
12 °C 0 m - Var Var 1 kt METAR ETWM 232320Z AUTO VRB01KT //// // ////// 12/10 Q1012 ///
00:20
L
12 °C 0 m - Var 000° 0 kt METAR ETWM 232220Z AUTO 00000KT //// // ////// 12/10 Q1013 ///

23 de septiembre de 2022

Hora Código Tiempo Temp. Visibilidad Cielo nuboso Viento METAR/SPECI
23:20
L
13 °C 0 m - 200° 200° 2 kt METAR ETWM 232120Z AUTO 20002KT //// // ////// 13/10 Q1013 ///
22:20
L
13 °C 0 m - Var Var 2 kt METAR ETWM 232020Z AUTO VRB02KT //// // ////// 13/10 Q1013 ///
21:20
L
13 °C 0 m - Var 000° 0 kt METAR ETWM 231920Z AUTO 00000KT //// // ////// 13/10 Q1013 ///
20:20
L
13 °C 0 m - Var 000° 0 kt METAR ETWM 231820Z AUTO 00000KT //// // ////// 13/11 Q1013 ///
19:20
L
14 °C 0 m - Var 000° 0 kt METAR ETWM 231720Z AUTO 00000KT //// // ////// 14/11 Q1013 ///
18:20
L
16 °C 0 m - Var Var 1 kt METAR ETWM 231620Z AUTO VRB01KT //// // ////// 16/10 Q1014 ///
17:20
L
17 °C 0 m - 170° 170° 3 kt METAR ETWM 231520Z AUTO 17003KT //// // ////// 17/09 Q1014 ///
Datos más antiguos

Nosotros y terceros seguimos tu comportamiento en Internet en nuestro sitio web con cookies. Si continúas, asumimos que estás de acuerdo con nuestra política de cookies. Más información